Terminal Aerodrome Forecast
Issued by NWS Cleveland, OH

Home | Current Version | Previous Version | Text Only | Print | Product List | Glossary On
Versions: 1 2 3 4 5 6 7 8 9 10 11 12 13 14 15 16 17 18 19
946
FTUS41 KCLE 162320
TAFYNG
TAF
KYNG 162320Z 1700/1724 00000KT P6SM OVC035
     FM170400 15003KT 6SM BR OVC050
     FM170800 VRB03KT 5SM BR BKN025
      TEMPO 1710/1714 3SM BR BKN012
     FM171400 VRB03KT 6SM BR BKN012
     FM171800 17005KT P6SM OVC020=

USA.gov is the U.S. government's official web portal to all federal, state and local government web resources and services.